Terminal Aerodrome Forecast
Issued by NWS

Home | Current Version | Previous Version | Text Only | Print | Product List | Glossary On
Versions: 1 2 3 4 5 6 7 8 9 10 11 12 13 14 15 16 17 18 19 20 21 22 23 24 25
508
FTUS43 KABR 220557 CCA
TAFATY
TAF COR
KATY 220557Z 2206/2306 VRB03KT 1SM BR FEW010
      TEMPO 2206/2210 4SM BR
     FM221300 15004KT 3SM BR FEW060
     FM221400 15005KT 6SM BR FEW200=

USA.gov is the U.S. government's official web portal to all federal, state and local government web resources and services.